createdAt,value
2022-07-25T00:01:57.038Z,1007.93
2022-07-25T00:03:56.934Z,1007.91
2022-07-25T00:04:56.935Z,1007.88
2022-07-25T00:05:57.182Z,1007.88
2022-07-25T00:06:56.921Z,1007.87
2022-07-25T00:07:56.955Z,1007.81
2022-07-25T00:08:56.987Z,1007.79
2022-07-25T00:09:57.021Z,1007.79
2022-07-25T00:10:57.065Z,1007.76
2022-07-25T00:11:57.097Z,1007.71
2022-07-25T00:12:57.429Z,1007.70
2022-07-25T00:13:57.157Z,1007.67
2022-07-25T00:14:57.189Z,1007.64
2022-07-25T00:15:57.309Z,1007.65
2022-07-25T00:16:57.256Z,1007.59
2022-07-25T00:17:57.290Z,1007.57
2022-07-25T00:18:57.328Z,1007.58
2022-07-25T00:19:57.671Z,1007.56
2022-07-25T00:20:57.393Z,1007.54
2022-07-25T00:21:57.433Z,1007.55
2022-07-25T00:22:57.466Z,1007.55
2022-07-25T00:23:57.498Z,1007.51
2022-07-25T00:24:57.546Z,1007.53
2022-07-25T00:25:57.564Z,1007.46
2022-07-25T00:26:57.849Z,1007.48
2022-07-25T00:27:57.631Z,1007.44
2022-07-25T00:28:57.718Z,1007.44
2022-07-25T00:29:57.703Z,1007.45
2022-07-25T00:30:57.822Z,1007.43
2022-07-25T00:31:57.765Z,1007.43
2022-07-25T00:32:57.800Z,1007.43
2022-07-25T00:33:58.133Z,1007.41
2022-07-25T00:34:57.872Z,1007.39
2022-07-25T00:35:57.905Z,1007.38
2022-07-25T00:36:57.938Z,1007.39
2022-07-25T00:37:57.971Z,1007.38
2022-07-25T00:38:58.005Z,1007.39
2022-07-25T00:39:58.040Z,1007.38
2022-07-25T00:40:58.376Z,1007.33
2022-07-25T00:42:58.143Z,1007.31
2022-07-25T00:44:58.314Z,1007.32
2022-07-25T00:45:58.316Z,1007.32
2022-07-25T00:46:58.339Z,1007.30
2022-07-25T00:47:58.567Z,1007.35
2022-07-25T00:48:58.503Z,1007.34
2022-07-25T00:49:58.378Z,1007.33
2022-07-25T00:50:58.411Z,1007.33
2022-07-25T00:52:58.485Z,1007.32
2022-07-25T00:53:58.514Z,1007.32
2022-07-25T00:54:58.853Z,1007.31
2022-07-25T00:55:58.583Z,1007.31
2022-07-25T00:56:58.618Z,1007.28
2022-07-25T00:57:58.649Z,1007.25
2022-07-25T00:58:58.683Z,1007.27
2022-07-25T00:59:58.723Z,1007.28
2022-07-25T01:00:58.876Z,1007.31
2022-07-25T01:02:59.141Z,1007.34
2022-07-25T01:04:58.891Z,1007.31
2022-07-25T01:05:58.922Z,1007.29
2022-07-25T01:07:58.989Z,1007.26
2022-07-25T01:08:59.032Z,1007.27
2022-07-25T01:09:59.356Z,1007.23
2022-07-25T01:10:59.091Z,1007.28
2022-07-25T01:11:59.224Z,1007.23
2022-07-25T01:12:59.161Z,1007.24
2022-07-25T01:13:59.190Z,1007.22
2022-07-25T01:14:59.250Z,1007.21
2022-07-25T01:15:59.292Z,1007.20
2022-07-25T01:16:59.593Z,1007.22
2022-07-25T01:17:59.733Z,1007.20
2022-07-25T01:18:59.367Z,1007.27
2022-07-25T01:19:59.394Z,1007.25
2022-07-25T01:20:59.423Z,1007.25
2022-07-25T01:21:59.570Z,1007.26
2022-07-25T01:22:59.493Z,1007.23
2022-07-25T01:23:59.836Z,1007.24
2022-07-25T01:24:59.575Z,1007.25
2022-07-25T01:25:59.604Z,1007.23
2022-07-25T01:26:59.631Z,1007.20
2022-07-25T01:28:59.700Z,1007.21
2022-07-25T01:29:59.734Z,1007.21
2022-07-25T01:31:00.098Z,1007.21
2022-07-25T01:31:59.800Z,1007.25
2022-07-25T01:32:59.964Z,1007.24
2022-07-25T01:33:59.864Z,1007.20
2022-07-25T01:34:59.899Z,1007.21
2022-07-25T01:35:59.940Z,1007.20
2022-07-25T01:37:00.268Z,1007.20
2022-07-25T01:37:59.999Z,1007.21
2022-07-25T01:39:00.039Z,1007.19
2022-07-25T01:40:00.071Z,1007.20
2022-07-25T01:41:00.104Z,1007.21
2022-07-25T01:42:00.146Z,1007.14
2022-07-25T01:43:00.418Z,1007.17
2022-07-25T01:44:00.205Z,1007.18
2022-07-25T01:45:00.234Z,1007.12
2022-07-25T01:46:00.414Z,1007.09
2022-07-25T01:47:00.308Z,1007.06
2022-07-25T01:48:00.340Z,1007.08
2022-07-25T01:49:00.773Z,1007.04
2022-07-25T01:51:00.438Z,1007.01
2022-07-25T01:52:00.472Z,1006.97
2022-07-25T01:53:00.508Z,1006.99
2022-07-25T01:54:00.547Z,1007.00
2022-07-25T01:55:00.581Z,1006.97
2022-07-25T01:56:00.908Z,1006.99
2022-07-25T01:57:00.640Z,1006.97
2022-07-25T01:58:00.674Z,1006.98
2022-07-25T01:59:00.709Z,1006.95
2022-07-25T02:00:00.748Z,1006.97
2022-07-25T02:01:00.848Z,1007.00
2022-07-25T02:02:00.872Z,1006.98
2022-07-25T02:03:01.149Z,1007.00
2022-07-25T02:04:00.997Z,1006.97
2022-07-25T02:05:01.083Z,1006.93
2022-07-25T02:06:00.944Z,1006.93
2022-07-25T02:07:00.975Z,1006.96
2022-07-25T02:08:01.011Z,1006.94
2022-07-25T02:10:01.081Z,1006.95
2022-07-25T02:11:01.366Z,1006.93
2022-07-25T02:12:01.141Z,1006.95
2022-07-25T02:13:01.180Z,1006.92
2022-07-25T02:14:01.213Z,1006.91
2022-07-25T02:15:01.248Z,1006.86
2022-07-25T02:16:01.384Z,1006.87
2022-07-25T02:17:01.397Z,1006.88
2022-07-25T02:18:01.597Z,1006.87
2022-07-25T02:19:01.382Z,1006.86
2022-07-25T02:22:01.491Z,1006.83
2022-07-25T02:23:01.517Z,1006.78
2022-07-25T02:24:01.547Z,1006.78
2022-07-25T02:25:01.887Z,1006.77
2022-07-25T02:26:01.612Z,1006.76
2022-07-25T02:27:01.647Z,1006.79
2022-07-25T02:28:01.681Z,1006.77
2022-07-25T02:29:01.721Z,1006.75
2022-07-25T02:30:01.747Z,1006.74
2022-07-25T02:31:01.849Z,1006.72
2022-07-25T02:32:02.114Z,1006.75
2022-07-25T02:33:01.850Z,1006.76
2022-07-25T02:34:01.884Z,1006.75
2022-07-25T02:35:01.919Z,1006.74
2022-07-25T02:36:01.950Z,1006.71
2022-07-25T02:38:02.067Z,1006.61
2022-07-25T02:39:02.351Z,1006.66
2022-07-25T02:40:02.086Z,1006.63
2022-07-25T02:41:02.129Z,1006.60
2022-07-25T02:42:02.160Z,1006.58
2022-07-25T02:43:02.193Z,1006.58
2022-07-25T02:44:02.215Z,1006.58
2022-07-25T02:45:02.253Z,1006.54
2022-07-25T02:46:02.680Z,1006.54
2022-07-25T02:47:02.318Z,1006.58
2022-07-25T02:48:02.360Z,1006.57
2022-07-25T02:49:02.422Z,1006.54
2022-07-25T02:50:02.463Z,1006.49
2022-07-25T02:51:02.473Z,1006.52
2022-07-25T02:52:02.490Z,1006.49
2022-07-25T02:53:02.768Z,1006.50
2022-07-25T02:54:02.553Z,1006.44
2022-07-25T02:55:08.962Z,1006.46
2022-07-25T02:56:02.619Z,1006.45
2022-07-25T02:57:02.665Z,1006.46
2022-07-25T02:59:02.720Z,1006.42
2022-07-25T03:00:03.006Z,1006.42
2022-07-25T03:01:02.864Z,1006.41
2022-07-25T03:02:02.821Z,1006.42
2022-07-25T03:03:02.859Z,1006.40
2022-07-25T03:04:03.115Z,1006.37
2022-07-25T03:05:02.925Z,1006.41
2022-07-25T03:06:02.956Z,1006.40
2022-07-25T03:07:03.293Z,1006.38
2022-07-25T03:08:03.021Z,1006.38
2022-07-25T03:09:03.055Z,1006.38
2022-07-25T03:10:03.088Z,1006.36
2022-07-25T03:11:03.122Z,1006.40
2022-07-25T03:13:03.188Z,1006.38
2022-07-25T03:14:03.678Z,1006.35
2022-07-25T03:15:03.253Z,1006.29
2022-07-25T03:16:03.296Z,1006.33
2022-07-25T03:17:03.364Z,1006.29
2022-07-25T03:18:03.356Z,1006.27
2022-07-25T03:20:03.421Z,1006.24
2022-07-25T03:22:03.786Z,1006.19
2022-07-25T03:24:03.571Z,1006.16
2022-07-25T03:25:03.596Z,1006.19
2022-07-25T03:26:03.621Z,1006.16
2022-07-25T03:27:03.653Z,1006.12
2022-07-25T03:28:03.688Z,1006.11
2022-07-25T03:29:03.970Z,1006.14
2022-07-25T03:30:03.855Z,1006.12
2022-07-25T03:31:03.788Z,1006.12
2022-07-25T03:32:03.908Z,1006.11
2022-07-25T03:33:03.868Z,1006.08
2022-07-25T03:34:04.310Z,1006.10
2022-07-25T03:35:03.925Z,1006.10
2022-07-25T03:36:04.258Z,1006.11
2022-07-25T03:37:03.990Z,1006.06
2022-07-25T03:38:04.025Z,1006.07
2022-07-25T03:39:05.484Z,1006.03
2022-07-25T03:40:04.086Z,1006.02
2022-07-25T03:42:04.159Z,1005.97
2022-07-25T03:43:04.440Z,1006.04
2022-07-25T03:44:04.655Z,1006.01
2022-07-25T03:45:04.260Z,1005.98
2022-07-25T03:46:04.394Z,1005.96
2022-07-25T03:47:04.331Z,1005.96
2022-07-25T03:48:04.360Z,1005.96
2022-07-25T03:49:04.534Z,1005.97
2022-07-25T03:50:04.672Z,1005.96
2022-07-25T03:51:07.010Z,1005.93
2022-07-25T03:52:04.492Z,1005.90
2022-07-25T03:53:04.529Z,1005.90
2022-07-25T03:54:05.060Z,1005.92
2022-07-25T03:55:04.592Z,1005.91
2022-07-25T03:56:04.621Z,1005.94
2022-07-25T03:57:04.905Z,1005.91
2022-07-25T03:58:04.685Z,1005.89
2022-07-25T03:59:04.718Z,1005.93
2022-07-25T04:00:04.759Z,1005.88
2022-07-25T04:01:04.895Z,1005.89
2022-07-25T04:03:04.852Z,1005.91
2022-07-25T04:04:05.610Z,1005.92
2022-07-25T04:05:04.921Z,1005.93
2022-07-25T04:06:05.054Z,1005.89
2022-07-25T04:07:04.986Z,1005.90
2022-07-25T04:08:05.020Z,1005.91
2022-07-25T04:09:05.052Z,1005.90
2022-07-25T04:10:05.388Z,1005.90
2022-07-25T04:11:05.117Z,1005.88
2022-07-25T04:12:05.152Z,1005.84
2022-07-25T04:13:05.183Z,1005.85
2022-07-25T04:15:05.253Z,1005.81
2022-07-25T04:16:05.591Z,1005.85
2022-07-25T04:17:05.389Z,1005.86
2022-07-25T04:18:05.357Z,1005.83
2022-07-25T04:19:05.386Z,1005.86
2022-07-25T04:20:05.617Z,1005.84
2022-07-25T04:21:05.451Z,1005.90
2022-07-25T04:22:05.736Z,1005.90
2022-07-25T04:23:05.522Z,1005.87
2022-07-25T04:25:05.585Z,1005.80
2022-07-25T04:26:05.618Z,1005.78
2022-07-25T04:27:05.650Z,1005.79
2022-07-25T04:28:05.692Z,1005.80
2022-07-25T04:29:05.970Z,1005.79
2022-07-25T04:30:05.754Z,1005.77
2022-07-25T04:31:05.784Z,1005.77
2022-07-25T04:33:05.855Z,1005.73
2022-07-25T04:34:06.377Z,1005.76
2022-07-25T04:35:05.926Z,1005.76
2022-07-25T04:36:06.202Z,1005.72
2022-07-25T04:37:05.994Z,1005.74
2022-07-25T04:38:10.209Z,1005.73
2022-07-25T04:39:06.051Z,1005.69
2022-07-25T04:40:06.082Z,1005.71
2022-07-25T04:41:06.117Z,1005.71
2022-07-25T04:42:06.153Z,1005.68
2022-07-25T04:43:06.489Z,1005.70
2022-07-25T04:44:06.526Z,1005.67
2022-07-25T04:45:06.249Z,1005.64
2022-07-25T04:46:06.380Z,1005.64
2022-07-25T04:47:06.319Z,1005.68
2022-07-25T04:48:06.351Z,1005.64
2022-07-25T04:49:06.442Z,1005.61
2022-07-25T04:50:06.716Z,1005.57
2022-07-25T04:51:06.451Z,1005.52
2022-07-25T04:52:06.484Z,1005.58
2022-07-25T04:53:06.516Z,1005.56
2022-07-25T04:54:06.905Z,1005.54
2022-07-25T04:55:06.584Z,1005.55
2022-07-25T04:56:06.620Z,1005.56
2022-07-25T04:57:06.950Z,1005.56
2022-07-25T04:58:06.685Z,1005.59
2022-07-25T04:59:07.309Z,1005.56
2022-07-25T05:00:06.747Z,1005.60
2022-07-25T05:01:06.871Z,1005.54
2022-07-25T05:02:06.894Z,1005.53
2022-07-25T05:03:06.851Z,1005.52
2022-07-25T05:04:07.577Z,1005.54
2022-07-25T05:05:06.920Z,1005.49
2022-07-25T05:06:06.952Z,1005.50
2022-07-25T05:07:07.085Z,1005.52
2022-07-25T05:08:07.024Z,1005.50
2022-07-25T05:09:07.054Z,1005.52
2022-07-25T05:10:07.087Z,1005.50
2022-07-25T05:11:07.426Z,1005.51
2022-07-25T05:12:07.148Z,1005.51
2022-07-25T05:13:07.180Z,1005.51
2022-07-25T05:14:07.732Z,1005.49
2022-07-25T05:15:07.248Z,1005.46
2022-07-25T05:16:07.354Z,1005.44
2022-07-25T05:17:07.322Z,1005.43
2022-07-25T05:18:07.655Z,1005.44
2022-07-25T05:19:07.400Z,1005.37
2022-07-25T05:20:07.450Z,1005.41
2022-07-25T05:21:07.455Z,1005.40
2022-07-25T05:22:07.486Z,1005.38
2022-07-25T05:23:07.513Z,1005.37
2022-07-25T05:24:07.956Z,1005.36
2022-07-25T05:25:07.849Z,1005.40
2022-07-25T05:27:07.651Z,1005.36
2022-07-25T05:28:07.682Z,1005.37
2022-07-25T05:29:07.717Z,1005.36
2022-07-25T05:30:07.746Z,1005.36
2022-07-25T05:31:07.849Z,1005.37
2022-07-25T05:32:08.070Z,1005.37
2022-07-25T05:33:07.856Z,1005.37
2022-07-25T05:34:08.258Z,1005.34
2022-07-25T05:35:07.971Z,1005.36
2022-07-25T05:36:07.947Z,1005.36
2022-07-25T05:37:07.981Z,1005.39
2022-07-25T05:38:08.018Z,1005.37
2022-07-25T05:39:08.357Z,1005.34
2022-07-25T05:40:08.082Z,1005.31
2022-07-25T05:41:08.117Z,1005.31
2022-07-25T05:42:08.148Z,1005.31
2022-07-25T05:43:08.188Z,1005.31
2022-07-25T05:44:08.582Z,1005.31
2022-07-25T05:45:08.254Z,1005.22
2022-07-25T05:46:08.584Z,1005.25
2022-07-25T05:47:08.352Z,1005.22
2022-07-25T05:48:08.351Z,1005.19
2022-07-25T05:49:08.429Z,1005.20
2022-07-25T05:50:08.418Z,1005.20
2022-07-25T05:52:12.863Z,1005.25
2022-07-25T05:53:08.763Z,1005.23
2022-07-25T05:54:09.045Z,1005.24
2022-07-25T05:55:08.586Z,1005.22
2022-07-25T05:56:08.613Z,1005.25
2022-07-25T05:57:08.749Z,1005.24
2022-07-25T05:58:08.678Z,1005.17
2022-07-25T05:59:09.113Z,1005.16
2022-07-25T06:00:08.752Z,1005.13
2022-07-25T06:01:08.783Z,1005.12
2022-07-25T06:02:08.935Z,1005.13
2022-07-25T06:03:08.943Z,1005.09
2022-07-25T06:04:09.306Z,1005.08
2022-07-25T06:05:09.216Z,1005.07
2022-07-25T06:08:09.115Z,1005.10
2022-07-25T06:09:09.049Z,1005.09
2022-07-25T06:10:09.081Z,1005.08
2022-07-25T06:11:09.369Z,1005.08
2022-07-25T06:12:09.153Z,1005.07
2022-07-25T06:13:09.185Z,1005.09
2022-07-25T06:14:09.679Z,1005.06
2022-07-25T06:15:17.721Z,1005.08
2022-07-25T06:16:09.359Z,1005.10
2022-07-25T06:17:09.317Z,1005.06
2022-07-25T06:18:09.604Z,1005.07
2022-07-25T06:19:09.389Z,1005.10
2022-07-25T06:20:09.416Z,1005.08
2022-07-25T06:21:09.464Z,1005.11
2022-07-25T06:22:09.493Z,1005.11
2022-07-25T06:23:09.516Z,1005.15
2022-07-25T06:24:09.804Z,1005.12
2022-07-25T06:25:09.585Z,1005.13
2022-07-25T06:26:09.625Z,1005.12
2022-07-25T06:27:09.653Z,1005.11
2022-07-25T06:28:11.145Z,1005.11
2022-07-25T06:30:19.305Z,1005.10
2022-07-25T06:31:10.218Z,1005.12
2022-07-25T06:32:09.824Z,1005.14
2022-07-25T06:33:09.854Z,1005.12
2022-07-25T06:34:10.382Z,1005.09
2022-07-25T06:35:09.962Z,1005.05
2022-07-25T06:36:09.957Z,1005.12
2022-07-25T06:38:10.281Z,1005.14
2022-07-25T06:39:10.068Z,1005.17
2022-07-25T06:40:10.370Z,1005.22
2022-07-25T06:41:10.125Z,1005.24
2022-07-25T06:42:10.186Z,1005.23
2022-07-25T06:43:10.292Z,1005.25
2022-07-25T06:44:10.393Z,1005.24
2022-07-25T06:45:10.578Z,1005.24
2022-07-25T06:46:10.311Z,1005.21
2022-07-25T06:47:10.450Z,1005.24
2022-07-25T06:48:10.363Z,1005.19
2022-07-25T06:49:10.553Z,1005.20
2022-07-25T06:50:11.306Z,1005.18
2022-07-25T06:51:10.462Z,1005.15
2022-07-25T06:52:10.747Z,1005.12
2022-07-25T06:53:10.532Z,1005.11
2022-07-25T06:55:10.603Z,1005.08
2022-07-25T06:58:10.950Z,1005.06
2022-07-25T07:00:10.766Z,1005.09
2022-07-25T07:01:10.939Z,1005.11
2022-07-25T07:02:10.837Z,1005.16
2022-07-25T07:03:11.023Z,1005.17
2022-07-25T07:04:11.152Z,1005.18
2022-07-25T07:05:10.941Z,1005.09
2022-07-25T07:06:10.969Z,1005.06
2022-07-25T07:07:11.004Z,1005.05
2022-07-25T07:08:11.046Z,1005.02
2022-07-25T07:09:11.073Z,1005.03
2022-07-25T07:10:11.409Z,1005.03
2022-07-25T07:11:11.147Z,1005.00
2022-07-25T07:12:11.237Z,1004.95
2022-07-25T07:13:11.210Z,1004.95
2022-07-25T07:14:11.266Z,1004.93
2022-07-25T07:15:11.280Z,1004.93
2022-07-25T07:16:11.677Z,1004.92
2022-07-25T07:17:11.373Z,1004.89
2022-07-25T07:18:11.387Z,1004.85
2022-07-25T07:19:11.422Z,1004.82
2022-07-25T07:20:11.460Z,1004.79
2022-07-25T07:21:11.482Z,1004.79
2022-07-25T07:22:11.512Z,1004.83
2022-07-25T07:23:11.853Z,1004.83
2022-07-25T07:24:24.482Z,1004.80
2022-07-25T07:25:11.629Z,1004.80
2022-07-25T07:26:11.671Z,1004.85
2022-07-25T07:27:11.688Z,1004.80
2022-07-25T07:28:11.724Z,1004.78
2022-07-25T07:29:11.757Z,1004.75
2022-07-25T07:30:12.092Z,1004.76
2022-07-25T07:31:16.851Z,1004.75
2022-07-25T07:32:11.909Z,1004.79
2022-07-25T07:33:11.901Z,1004.79
2022-07-25T07:34:11.938Z,1004.79
2022-07-25T07:35:12.061Z,1004.80
2022-07-25T07:36:11.995Z,1004.84
2022-07-25T07:37:12.029Z,1004.90
2022-07-25T07:38:12.063Z,1004.88
2022-07-25T07:39:12.103Z,1004.93
2022-07-25T07:40:17.005Z,1004.96
2022-07-25T07:41:12.177Z,1004.93
2022-07-25T07:42:12.200Z,1004.96
2022-07-25T07:43:12.539Z,1004.94
2022-07-25T07:44:12.281Z,1004.91
2022-07-25T07:45:12.334Z,1004.88
2022-07-25T07:46:12.398Z,1004.85
2022-07-25T07:47:14.505Z,1004.82
2022-07-25T07:48:12.507Z,1004.81
2022-07-25T07:49:12.600Z,1004.82
2022-07-25T07:51:12.770Z,1004.81
2022-07-25T07:52:12.549Z,1004.81
2022-07-25T07:53:12.583Z,1004.83
2022-07-25T07:54:12.619Z,1004.83
2022-07-25T07:55:12.651Z,1004.88
2022-07-25T07:56:12.689Z,1004.84
2022-07-25T07:57:12.721Z,1004.81
2022-07-25T07:58:13.063Z,1004.77
2022-07-25T07:59:12.786Z,1004.82
2022-07-25T08:00:16.512Z,1004.86
2022-07-25T08:01:12.865Z,1004.85
2022-07-25T08:02:12.948Z,1004.85
2022-07-25T08:04:13.266Z,1004.80
2022-07-25T08:05:12.995Z,1004.83
2022-07-25T08:06:13.034Z,1004.80
2022-07-25T08:07:13.092Z,1004.85
2022-07-25T08:08:13.102Z,1004.82
2022-07-25T08:09:13.131Z,1004.79
2022-07-25T08:10:13.470Z,1004.77
2022-07-25T08:11:13.212Z,1004.76
2022-07-25T08:12:13.234Z,1004.75
2022-07-25T08:14:13.304Z,1004.79
2022-07-25T08:15:13.350Z,1004.79
2022-07-25T08:16:13.804Z,1004.86
2022-07-25T08:17:13.406Z,1004.89
2022-07-25T08:18:17.005Z,1004.90
2022-07-25T08:19:13.485Z,1004.89
2022-07-25T08:20:35.662Z,1004.90
2022-07-25T08:21:13.646Z,1004.92
2022-07-25T08:22:13.852Z,1004.93
2022-07-25T08:24:13.656Z,1004.91
2022-07-25T08:25:13.686Z,1004.96
2022-07-25T08:26:13.719Z,1004.92
2022-07-25T08:27:13.766Z,1004.88
2022-07-25T08:28:13.790Z,1004.86
2022-07-25T08:29:25.070Z,1004.91
2022-07-25T08:30:13.857Z,1004.90
2022-07-25T08:31:13.991Z,1004.98
2022-07-25T08:32:13.931Z,1004.99
2022-07-25T08:33:13.992Z,1005.02
2022-07-25T08:34:14.000Z,1005.03
2022-07-25T08:35:14.029Z,1005.00
2022-07-25T08:36:14.318Z,1005.06
2022-07-25T08:37:14.108Z,1005.04
2022-07-25T08:38:14.138Z,1005.05
2022-07-25T08:39:14.271Z,1005.05
2022-07-25T08:40:14.225Z,1005.03
2022-07-25T08:41:14.239Z,1004.98
2022-07-25T08:42:14.281Z,1004.94
2022-07-25T08:43:14.575Z,1004.96
2022-07-25T08:44:14.348Z,1004.99
2022-07-25T08:45:14.377Z,1004.98
2022-07-25T08:46:14.479Z,1005.01
2022-07-25T08:47:14.558Z,1004.99
2022-07-25T08:48:14.483Z,1005.03
2022-07-25T08:49:14.623Z,1005.06
2022-07-25T08:50:14.890Z,1005.13
2022-07-25T08:51:14.589Z,1005.21
2022-07-25T08:52:14.636Z,1005.20
2022-07-25T08:53:32.573Z,1005.19
2022-07-25T08:54:14.692Z,1005.24
2022-07-25T08:55:14.727Z,1005.22
2022-07-25T08:56:19.003Z,1005.26
2022-07-25T08:57:15.047Z,1005.24
2022-07-25T08:58:14.839Z,1005.24
2022-07-25T08:59:14.866Z,1005.23
2022-07-25T09:00:14.904Z,1005.19
2022-07-25T09:02:15.145Z,1005.19
2022-07-25T09:03:15.100Z,1005.15
2022-07-25T09:04:15.291Z,1005.12
2022-07-25T09:05:15.076Z,1005.07
2022-07-25T09:06:15.115Z,1005.06
2022-07-25T09:07:15.246Z,1005.07
2022-07-25T09:08:15.190Z,1005.13
2022-07-25T09:09:15.268Z,1005.16
2022-07-25T09:10:15.258Z,1005.20
2022-07-25T09:11:15.588Z,1005.24
2022-07-25T09:12:15.328Z,1005.21
2022-07-25T09:13:15.353Z,1005.15
2022-07-25T09:14:15.627Z,1005.14
2022-07-25T09:15:15.467Z,1005.11
2022-07-25T09:16:15.510Z,1005.13
2022-07-25T09:17:22.659Z,1005.16
2022-07-25T09:18:15.952Z,1005.23
2022-07-25T09:19:15.565Z,1005.27
2022-07-25T09:20:18.490Z,1005.25
2022-07-25T09:21:15.638Z,1005.23
2022-07-25T09:22:15.669Z,1005.20
2022-07-25T09:23:15.728Z,1005.27
2022-07-25T09:24:16.182Z,1005.28
2022-07-25T09:25:15.775Z,1005.33
2022-07-25T09:26:15.813Z,1005.35
2022-07-25T09:27:15.847Z,1005.37
2022-07-25T09:28:15.878Z,1005.36
2022-07-25T09:29:16.368Z,1005.39
2022-07-25T09:30:16.253Z,1005.36
2022-07-25T09:32:16.018Z,1005.33
2022-07-25T09:33:16.053Z,1005.34
2022-07-25T09:34:16.090Z,1005.33
2022-07-25T09:35:16.131Z,1005.36
2022-07-25T09:36:16.459Z,1005.38
2022-07-25T09:37:16.196Z,1005.38
2022-07-25T09:38:16.235Z,1005.41
2022-07-25T09:41:16.333Z,1005.40
2022-07-25T09:42:16.692Z,1005.39
2022-07-25T09:43:16.522Z,1005.36
2022-07-25T09:44:16.445Z,1005.42
2022-07-25T09:45:16.475Z,1005.44
2022-07-25T09:46:16.576Z,1005.41
2022-07-25T09:47:16.548Z,1005.49
2022-07-25T09:48:16.600Z,1005.45
2022-07-25T09:49:16.685Z,1005.49
2022-07-25T09:50:16.649Z,1005.49
2022-07-25T09:51:16.684Z,1005.48
2022-07-25T09:52:16.762Z,1005.54
2022-07-25T09:53:16.755Z,1005.53
2022-07-25T09:54:16.790Z,1005.59
2022-07-25T09:55:17.124Z,1005.62
2022-07-25T09:56:16.864Z,1005.62
2022-07-25T09:57:16.894Z,1005.63
2022-07-25T09:58:16.937Z,1005.65
2022-07-25T09:59:16.962Z,1005.66
2022-07-25T10:00:19.515Z,1005.75
2022-07-25T10:01:17.196Z,1005.81
2022-07-25T10:02:17.356Z,1005.85
2022-07-25T10:03:17.101Z,1005.88
2022-07-25T10:04:17.142Z,1005.88
2022-07-25T10:05:17.168Z,1005.92
2022-07-25T10:06:17.717Z,1006.00
2022-07-25T10:07:17.253Z,1005.94
2022-07-25T10:09:17.575Z,1005.91
2022-07-25T10:10:17.352Z,1005.78
2022-07-25T10:11:17.380Z,1005.75
2022-07-25T10:12:17.419Z,1005.70
2022-07-25T10:13:17.452Z,1005.76
2022-07-25T10:14:18.190Z,1005.75
2022-07-25T10:15:17.625Z,1005.80
2022-07-25T10:16:17.959Z,1005.84
2022-07-25T10:17:17.625Z,1005.81
2022-07-25T10:18:17.625Z,1005.78
2022-07-25T10:19:17.660Z,1005.77
2022-07-25T10:20:17.696Z,1005.79
2022-07-25T10:21:26.325Z,1005.78
2022-07-25T10:22:29.444Z,1005.78
2022-07-25T10:23:18.058Z,1005.77
2022-07-25T10:24:17.837Z,1005.73
2022-07-25T10:25:17.868Z,1005.70
2022-07-25T10:26:17.904Z,1005.54
2022-07-25T10:27:18.006Z,1005.49
2022-07-25T10:28:17.974Z,1005.47
2022-07-25T10:31:18.401Z,1005.51
2022-07-25T10:32:18.119Z,1005.56
2022-07-25T10:33:18.160Z,1005.60
2022-07-25T10:34:18.182Z,1005.63
2022-07-25T10:35:18.222Z,1005.63
2022-07-25T10:36:18.260Z,1005.63
2022-07-25T10:37:18.289Z,1005.66
2022-07-25T10:38:18.572Z,1005.65
2022-07-25T10:39:18.356Z,1005.67
2022-07-25T10:40:18.394Z,1005.68
2022-07-25T10:41:18.463Z,1005.72
2022-07-25T10:42:18.459Z,1005.73
2022-07-25T10:43:18.498Z,1005.70
2022-07-25T10:44:18.531Z,1005.65
2022-07-25T10:45:18.567Z,1005.62
2022-07-25T10:46:18.682Z,1005.68
2022-07-25T10:47:18.788Z,1005.69
2022-07-25T10:48:18.669Z,1005.81
2022-07-25T10:49:18.750Z,1005.81
2022-07-25T10:50:34.636Z,1005.79
2022-07-25T10:51:19.082Z,1005.76
2022-07-25T10:52:18.807Z,1005.80
2022-07-25T10:53:18.841Z,1005.82
2022-07-25T10:54:18.879Z,1005.94
2022-07-25T10:56:18.950Z,1005.81
2022-07-25T10:58:19.476Z,1005.74
2022-07-25T10:59:19.052Z,1005.72
2022-07-25T11:01:19.179Z,1005.63
2022-07-25T11:02:19.263Z,1005.58
2022-07-25T11:03:19.197Z,1005.56
2022-07-25T11:04:19.491Z,1005.64
2022-07-25T11:05:19.271Z,1005.71
2022-07-25T11:06:19.299Z,1005.76
2022-07-25T11:07:19.343Z,1005.77
2022-07-25T11:08:22.632Z,1005.78
2022-07-25T11:09:23.806Z,1005.79
2022-07-25T11:10:19.739Z,1005.77
2022-07-25T11:11:19.470Z,1005.86
2022-07-25T11:12:19.513Z,1005.86
2022-07-25T11:13:19.545Z,1005.86
2022-07-25T11:14:19.585Z,1005.88
2022-07-25T11:15:19.610Z,1005.94
2022-07-25T11:16:19.690Z,1005.90
2022-07-25T11:17:20.129Z,1005.91
2022-07-25T11:19:19.816Z,1005.86
2022-07-25T11:20:19.787Z,1005.89
2022-07-25T11:22:19.857Z,1005.87
2022-07-25T11:23:19.894Z,1005.92
2022-07-25T11:24:20.187Z,1005.95
2022-07-25T11:25:19.967Z,1005.95
2022-07-25T11:26:19.996Z,1005.90
2022-07-25T11:27:20.038Z,1005.94
2022-07-25T11:28:20.065Z,1005.96
2022-07-25T11:29:20.102Z,1005.92
2022-07-25T11:30:20.142Z,1005.98
2022-07-25T11:31:20.535Z,1005.92
2022-07-25T11:32:20.397Z,1005.87
2022-07-25T11:33:20.242Z,1005.86
2022-07-25T11:34:20.284Z,1005.83
2022-07-25T11:35:20.314Z,1005.86
2022-07-25T11:36:20.352Z,1005.86
2022-07-25T11:37:20.381Z,1005.84
2022-07-25T11:38:20.722Z,1005.89
2022-07-25T11:39:20.454Z,1005.90
2022-07-25T11:40:20.494Z,1005.79
2022-07-25T11:41:20.526Z,1005.84
2022-07-25T11:42:20.560Z,1005.84
2022-07-25T11:44:20.933Z,1005.87
2022-07-25T11:45:20.662Z,1005.91
2022-07-25T11:46:20.782Z,1005.90
2022-07-25T11:47:20.741Z,1005.90
2022-07-25T11:48:20.771Z,1005.95
2022-07-25T11:49:20.904Z,1006.00
2022-07-25T11:50:20.844Z,1005.94
2022-07-25T11:51:21.176Z,1005.97
2022-07-25T11:52:20.914Z,1006.01
2022-07-25T11:53:20.942Z,1006.08
2022-07-25T11:54:20.980Z,1006.04
2022-07-25T11:55:21.016Z,1006.10
2022-07-25T11:56:43.768Z,1006.07
2022-07-25T11:57:21.084Z,1006.13
2022-07-25T11:58:21.369Z,1006.15
2022-07-25T11:59:21.155Z,1006.19
2022-07-25T12:00:21.195Z,1006.17
2022-07-25T12:01:21.227Z,1006.15
2022-07-25T12:02:21.361Z,1006.13
2022-07-25T12:03:21.525Z,1006.12
2022-07-25T12:04:21.335Z,1006.17
2022-07-25T12:05:21.654Z,1006.20
2022-07-25T12:07:21.432Z,1006.19
2022-07-25T12:08:21.480Z,1006.20
2022-07-25T12:09:21.519Z,1006.17
2022-07-25T12:10:21.559Z,1006.10
2022-07-25T12:11:21.579Z,1006.08
2022-07-25T12:12:21.918Z,1006.09
2022-07-25T12:13:21.650Z,1006.11
2022-07-25T12:14:21.686Z,1006.08
2022-07-25T12:15:21.715Z,1006.13
2022-07-25T12:16:21.794Z,1006.18
2022-07-25T12:17:21.818Z,1006.21
2022-07-25T12:18:22.078Z,1006.23
2022-07-25T12:20:21.902Z,1006.20
2022-07-25T12:21:21.986Z,1006.21
2022-07-25T12:22:21.966Z,1006.17
2022-07-25T12:23:22.176Z,1006.17
2022-07-25T12:24:22.338Z,1006.10
2022-07-25T12:25:22.077Z,1006.12
2022-07-25T12:26:22.106Z,1006.13
2022-07-25T12:27:22.259Z,1006.07
2022-07-25T12:28:22.175Z,1006.14
2022-07-25T12:29:22.214Z,1006.12
2022-07-25T12:30:22.552Z,1006.11
2022-07-25T12:32:22.339Z,1006.13
2022-07-25T12:33:22.375Z,1006.07
2022-07-25T12:34:22.430Z,1006.10
2022-07-25T12:35:22.423Z,1006.11
2022-07-25T12:36:22.457Z,1006.12
2022-07-25T12:37:22.502Z,1006.05
2022-07-25T12:38:22.528Z,1006.11
2022-07-25T12:39:22.563Z,1006.18
2022-07-25T12:40:22.602Z,1006.19
2022-07-25T12:42:22.675Z,1006.15
2022-07-25T12:43:22.710Z,1006.10
2022-07-25T12:44:22.742Z,1006.02
2022-07-25T12:46:22.854Z,1006.10
2022-07-25T12:47:22.848Z,1006.14
2022-07-25T12:48:22.895Z,1006.13
2022-07-25T12:49:23.853Z,1006.14
2022-07-25T12:50:22.968Z,1006.21
2022-07-25T12:51:22.993Z,1006.29
2022-07-25T12:52:23.030Z,1006.28
2022-07-25T12:53:23.091Z,1006.34
2022-07-25T12:54:23.111Z,1006.31
2022-07-25T12:55:23.238Z,1006.32
2022-07-25T12:56:23.418Z,1006.32
2022-07-25T12:57:23.208Z,1006.30
2022-07-25T12:58:23.249Z,1006.35
2022-07-25T13:00:23.323Z,1006.44
2022-07-25T13:01:23.392Z,1006.30
2022-07-25T13:02:23.413Z,1006.23
2022-07-25T13:03:23.759Z,1006.24